Time;durP1;ratioP1;P1;durP2;ratioP2;P2;SDS_P1;SDS_P2;PMS_P1;PMS_P2;Temp;Humidity;BMP_temperature;BMP_pressure;BME280_temperature;BME280_humidity;BME280_pressure;Samples;Min_cycle;Max_cycle;Signal;HPM_P1;HPM_P2
2023/07/11 00:01:24;;;;;;;0.00;0.00;;;;;;;24.31;59.83;101750.03;5009175;28;20141;-86
2023/07/11 00:03:50;;;;;;;0.00;0.00;;;;;;;24.14;60.12;101755.19;5029966;28;20037;-86
2023/07/11 00:06:19;;;;;;;0.00;0.00;;;;;;;24.09;60.79;101749.78;5042633;28;20438;-86
2023/07/11 00:08:53;;;;;;;0.00;0.00;;;;;;;23.98;61.39;101758.41;5022930;28;20045;-86
2023/07/11 00:11:37;;;;;;;0.00;0.00;;;;;;;24.15;59.99;101747.78;5014051;28;20026;-84
2023/07/11 00:14:02;;;;;;;0.00;0.00;;;;;;;24.12;60.38;101746.44;5053335;28;20083;-85
2023/07/11 00:16:30;;;;;;;0.00;0.00;;;;;;;24.13;60.40;101750.81;5040243;28;20026;-84
2023/07/11 00:18:55;;;;;;;0.00;0.00;;;;;;;23.90;61.27;101748.84;5022839;28;20038;-84
2023/07/11 00:21:21;;;;;;;0.00;0.00;;;;;;;23.95;62.39;101737.81;5003944;28;20422;-82
2023/07/11 00:23:46;;;;;;;0.00;0.00;;;;;;;23.96;61.83;101738.66;5031464;28;20084;-83
2023/07/11 00:26:12;;;;;;;0.00;0.00;;;;;;;23.92;62.54;101745.84;5019277;28;20394;-85
2023/07/11 00:28:37;;;;;;;0.00;0.00;;;;;;;24.03;60.78;101739.97;5032843;28;20064;-82
2023/07/11 00:31:03;;;;;;;0.00;0.00;;;;;;;23.76;63.03;101741.63;5038827;28;20037;-84
2023/07/11 00:33:28;;;;;;;0.00;0.00;;;;;;;23.91;61.80;101742.25;5010445;28;20041;-84
2023/07/11 00:35:54;;;;;;;0.00;0.00;;;;;;;23.86;62.11;101738.75;5018616;28;20037;-85
2023/07/11 00:38:22;;;;;;;0.00;0.00;;;;;;;23.95;62.13;101731.50;5015500;28;20045;-87
2023/07/11 00:40:50;;;;;;;0.00;0.00;;;;;;;23.90;61.90;101729.63;5039837;28;20355;-85
2023/07/11 00:43:18;;;;;;;0.00;0.00;;;;;;;23.81;62.05;101727.81;5036374;28;20034;-85
2023/07/11 00:46:10;;;;;;;0.00;0.00;;;;;;;23.99;61.56;101733.38;5021351;28;20061;-84
2023/07/11 00:48:43;;;;;;;0.10;0.10;;;;;;;23.96;61.56;101725.72;5038823;28;20041;-84
2023/07/11 00:51:12;;;;;;;0.00;0.00;;;;;;;23.96;62.47;101720.22;5040331;28;20041;-85
2023/07/11 00:53:40;;;;;;;0.00;0.00;;;;;;;23.96;62.04;101722.16;5061093;28;20029;-86
2023/07/11 00:56:10;;;;;;;0.00;0.00;;;;;;;23.77;62.50;101715.78;5049126;28;20021;-84
2023/07/11 00:58:42;;;;;;;0.00;0.00;;;;;;;23.81;62.50;101716.84;5046219;28;20681;-86
2023/07/11 01:01:09;;;;;;;0.00;0.00;;;;;;;23.73;62.90;101718.31;5074461;28;20028;-84
2023/07/11 01:03:34;;;;;;;0.00;0.00;;;;;;;23.73;63.03;101712.81;5063214;28;20043;-84
2023/07/11 01:06:02;;;;;;;0.00;0.00;;;;;;;23.86;63.80;101719.53;5048800;28;20109;-85
2023/07/11 01:08:35;;;;;;;0.00;0.00;;;;;;;23.65;63.75;101716.19;5037378;28;20045;-85
2023/07/11 01:11:01;;;;;;;0.00;0.00;;;;;;;23.85;62.31;101712.41;5039175;28;20022;-84
2023/07/11 01:13:26;;;;;;;0.00;0.00;;;;;;;23.83;62.09;101712.69;5038697;28;20064;-85
2023/07/11 01:15:52;;;;;;;0.00;0.00;;;;;;;23.85;62.35;101698.66;5048103;28;20058;-86
2023/07/11 01:18:17;;;;;;;0.00;0.00;;;;;;;23.91;62.00;101700.25;5067379;28;20037;-83
2023/07/11 01:20:51;;;;;;;0.00;0.00;;;;;;;23.72;61.81;101702.13;5074186;28;20029;-87
2023/07/11 01:23:24;;;;;;;0.00;0.00;;;;;;;23.73;62.49;101696.34;5057160;28;20036;-85
2023/07/11 01:25:50;;;;;;;0.00;0.00;;;;;;;23.81;62.45;101697.63;5065964;28;20072;-84
2023/07/11 01:28:15;;;;;;;0.00;0.00;;;;;;;23.89;62.08;101683.25;5067298;28;20061;-84
2023/07/11 01:30:41;;;;;;;0.00;0.00;;;;;;;23.76;62.42;101681.22;5057585;28;20033;-84
2023/07/11 01:33:09;;;;;;;0.00;0.00;;;;;;;23.82;61.82;101678.09;5057846;28;20036;-85
2023/07/11 01:35:34;;;;;;;0.00;0.00;;;;;;;23.80;61.85;101688.59;5053021;28;20029;-85
2023/07/11 01:38:00;;;;;;;0.00;0.00;;;;;;;23.64;64.42;101680.81;5051043;28;20540;-85
2023/07/11 01:40:25;;;;;;;0.00;0.00;;;;;;;23.63;63.45;101679.97;5056538;28;20174;-83
2023/07/11 01:42:51;;;;;;;0.00;0.00;;;;;;;23.48;64.95;101671.94;5056795;28;20410;-86
2023/07/11 01:45:17;;;;;;;0.00;0.00;;;;;;;23.53;63.67;101667.19;5055820;28;20120;-85
2023/07/11 01:47:42;;;;;;;0.00;0.00;;;;;;;23.49;64.45;101662.56;5077641;28;20443;-84
2023/07/11 01:50:08;;;;;;;0.00;0.00;;;;;;;23.47;63.52;101662.88;5051682;28;20024;-84
2023/07/11 01:52:37;;;;;;;0.00;0.00;;;;;;;23.45;64.20;101673.31;5071003;28;20070;-86
2023/07/11 01:55:02;;;;;;;0.00;0.00;;;;;;;23.45;64.60;101667.00;5078340;28;20067;-84
2023/07/11 01:57:28;;;;;;;0.00;0.00;;;;;;;23.30;64.72;101667.16;5059672;28;20123;-84
2023/07/11 01:59:53;;;;;;;0.00;0.00;;;;;;;23.38;65.53;101659.13;5060494;28;20044;-83
2023/07/11 02:02:19;;;;;;;0.00;0.00;;;;;;;23.23;66.42;101659.25;5066859;28;20419;-87
2023/07/11 02:04:45;;;;;;;0.00;0.00;;;;;;;22.96;67.25;101655.41;5073342;28;20039;-86
2023/07/11 02:07:10;;;;;;;0.00;0.00;;;;;;;22.80;68.35;101651.16;5081131;28;20032;-86
2023/07/11 02:09:37;;;;;;;0.00;0.00;;;;;;;22.77;68.21;101651.72;5061475;28;20440;-85
2023/07/11 02:12:03;;;;;;;0.03;0.03;;;;;;;22.74;68.69;101644.09;5079472;28;20024;-85
2023/07/11 02:17:51;;;;;;;0.00;0.00;;;;;;;22.91;68.74;101639.81;5079612;28;20044;-85
2023/07/11 02:20:16;;;;;;;0.00;0.00;;;;;;;22.87;68.35;101646.16;5079442;28;20036;-84
2023/07/11 02:22:43;;;;;;;0.00;0.00;;;;;;;22.99;67.49;101644.69;5078334;28;20071;-84
2023/07/11 02:25:08;;;;;;;0.00;0.00;;;;;;;22.97;68.79;101644.16;5060771;28;20029;-85
2023/07/11 02:30:57;;;;;;;0.00;0.00;;;;;;;22.89;68.02;101631.06;5057440;28;20106;-84
2023/07/11 02:33:23;;;;;;;0.10;0.10;;;;;;;22.82;69.27;101635.25;5072435;28;20048;-86
2023/07/11 02:35:48;;;;;;;0.00;0.00;;;;;;;22.74;69.38;101623.00;5058666;28;20029;-83
2023/07/11 02:38:19;;;;;;;0.00;0.00;;;;;;;22.59;69.64;101618.44;5058108;28;20384;-83
2023/07/11 02:40:48;;;;;;;0.00;0.00;;;;;;;22.60;70.20;101622.81;5057695;28;20533;-85
2023/07/11 02:43:15;;;;;;;0.00;0.00;;;;;;;22.34;71.22;101618.59;5056802;28;20120;-85
2023/07/11 02:45:41;;;;;;;0.03;0.03;;;;;;;22.34;70.93;101617.78;5037070;28;20037;-84
2023/07/11 02:48:06;;;;;;;0.00;0.00;;;;;;;22.46;69.60;101616.31;5020111;28;20034;-84
2023/07/11 02:50:31;;;;;;;0.00;0.00;;;;;;;22.48;69.93;101613.28;5038644;28;20624;-83
2023/07/11 02:52:57;;;;;;;0.00;0.00;;;;;;;22.52;70.01;101608.88;5038107;28;20125;-85
2023/07/11 02:55:25;;;;;;;0.00;0.00;;;;;;;22.51;70.13;101601.75;5021421;28;20022;-86
2023/07/11 02:57:54;;;;;;;0.00;0.00;;;;;;;22.59;70.52;101607.47;5023423;28;20017;-85
2023/07/11 03:00:20;;;;;;;0.00;0.00;;;;;;;22.54;71.60;101599.25;5038641;28;20060;-85
2023/07/11 03:02:45;;;;;;;0.00;0.00;;;;;;;22.55;69.88;101600.06;5038158;28;20026;-86
2023/07/11 03:05:14;;;;;;;0.05;0.05;;;;;;;22.43;70.78;101600.44;5021032;28;20045;-85
2023/07/11 03:07:40;;;;;;;0.00;0.00;;;;;;;22.58;69.66;101592.13;5012375;28;20047;-84
2023/07/11 03:10:06;;;;;;;0.00;0.00;;;;;;;22.43;70.09;101586.75;5026150;28;20040;-85
2023/07/11 03:12:31;;;;;;;0.00;0.00;;;;;;;22.48;70.52;101583.16;5035843;28;20093;-82
2023/07/11 03:14:57;;;;;;;0.00;0.00;;;;;;;22.57;70.42;101586.94;5035211;28;20048;-83
2023/07/11 03:17:22;;;;;;;0.00;0.00;;;;;;;22.50;70.16;101579.03;5034087;28;20037;-83
2023/07/11 03:19:49;;;;;;;0.05;0.05;;;;;;;22.45;71.30;101576.31;5006681;28;20049;-84
2023/07/11 03:22:17;;;;;;;0.00;0.00;;;;;;;22.32;72.34;101585.19;5026346;28;20036;-84
2023/07/11 03:24:42;;;;;;;0.00;0.00;;;;;;;22.27;72.00;101571.53;5017448;28;20049;-83
2023/07/11 03:27:07;;;;;;;0.00;0.00;;;;;;;22.39;71.78;101573.91;5014782;28;20506;-83
2023/07/11 03:29:33;;;;;;;0.00;0.00;;;;;;;22.30;71.91;101573.72;5023111;28;20030;-83
2023/07/11 03:32:02;;;;;;;0.00;0.00;;;;;;;22.21;72.63;101569.94;5039029;28;20034;-84
2023/07/11 03:34:27;;;;;;;0.10;0.10;;;;;;;22.19;73.20;101577.59;5022175;28;20095;-84
2023/07/11 03:36:53;;;;;;;0.10;0.10;;;;;;;22.37;72.27;101576.94;5040033;28;20494;-84
2023/07/11 03:39:18;;;;;;;0.10;0.10;;;;;;;22.33;73.46;101567.66;5040643;28;20048;-85
2023/07/11 03:41:44;;;;;;;0.00;0.00;;;;;;;22.37;73.26;101574.19;5040935;28;20503;-83
2023/07/11 03:44:10;;;;;;;0.00;0.00;;;;;;;22.28;72.45;101573.19;5040284;28;20050;-84
2023/07/11 03:46:35;;;;;;;0.08;0.08;;;;;;;22.34;72.28;101563.81;5040819;28;20044;-86
2023/07/11 03:49:01;;;;;;;0.00;0.00;;;;;;;22.32;72.34;101552.34;5023087;28;20093;-83
2023/07/11 03:51:27;;;;;;;0.00;0.00;;;;;;;22.25;73.15;101557.31;5019990;28;20049;-84
2023/07/11 03:53:52;;;;;;;0.05;0.05;;;;;;;22.31;72.59;101547.94;5020202;28;20026;-84
2023/07/11 03:56:18;;;;;;;0.00;0.00;;;;;;;22.36;72.40;101539.72;5003813;28;20022;-83
2023/07/11 03:58:43;;;;;;;0.08;0.08;;;;;;;22.22;73.11;101544.19;5034998;28;20030;-84
2023/07/11 04:01:11;;;;;;;0.00;0.00;;;;;;;22.24;73.73;101543.91;5036197;28;20038;-83
2023/07/11 04:03:39;;;;;;;0.08;0.08;;;;;;;22.30;73.94;101538.13;5030167;28;20030;-83
2023/07/11 04:06:11;;;;;;;0.00;0.00;;;;;;;22.42;73.59;101537.75;5039664;28;20047;-85
2023/07/11 04:08:37;;;;;;;0.00;0.00;;;;;;;22.32;73.31;101535.09;5024544;28;20040;-83
2023/07/11 04:11:02;;;;;;;0.00;0.00;;;;;;;22.44;72.28;101533.63;5022317;28;20077;-83
2023/07/11 04:13:28;;;;;;;0.00;0.00;;;;;;;22.41;72.75;101536.09;5020968;28;20037;-83
2023/07/11 04:15:53;;;;;;;0.00;0.00;;;;;;;22.41;72.50;101528.69;5026503;28;20117;-81
2023/07/11 04:18:19;;;;;;;0.00;0.00;;;;;;;22.47;73.24;101529.47;5014363;28;20099;-83
2023/07/11 04:20:45;;;;;;;0.10;0.10;;;;;;;22.47;72.71;101527.56;5024259;28;20270;-83
2023/07/11 04:23:11;;;;;;;0.08;0.00;;;;;;;22.52;72.43;101521.22;5003881;28;20041;-83
2023/07/11 04:25:37;;;;;;;0.00;0.00;;;;;;;22.58;72.81;101514.63;5022361;28;20044;-83
2023/07/11 04:28:04;;;;;;;0.00;0.00;;;;;;;22.61;72.04;101512.13;5041343;28;20064;-85
2023/07/11 04:38:27;;;;;;;0.00;0.00;;;;;;;22.78;72.73;101500.69;4995137;28;20045;-87
2023/07/11 04:41:46;;;;;;;;;;;;;;;;;;;;;
2023/07/11 05:31:27;;;;;;;;;;;;;;;;;;;;;
2023/07/11 05:46:51;;;;;;;0.00;0.00;;;;;;;24.08;64.85;101436.97;5031466;28;20720;-67
2023/07/11 05:49:16;;;;;;;0.00;0.00;;;;;;;24.13;64.85;101431.41;5007667;28;20038;-67
2023/07/11 05:51:42;;;;;;;0.00;0.00;;;;;;;24.18;64.99;101428.53;5009181;28;20038;-67
2023/07/11 05:54:08;;;;;;;0.00;0.00;;;;;;;24.43;63.77;101417.91;5016814;28;20034;-66
2023/07/11 05:56:33;;;;;;;0.00;0.00;;;;;;;24.55;62.98;101417.41;5014673;28;20500;-67
2023/07/11 05:58:59;;;;;;;0.00;0.00;;;;;;;24.63;62.87;101415.91;5006929;28;20038;-66
2023/07/11 06:01:27;;;;;;;0.00;0.00;;;;;;;24.79;62.57;101409.81;5006635;28;20037;-67
2023/07/11 06:04:13;;;;;;;0.00;0.00;;;;;;;25.08;61.57;101409.50;5008132;28;20061;-66
2023/07/11 06:06:43;;;;;;;0.00;0.00;;;;;;;24.99;61.81;101406.66;5019758;28;20103;-67
2023/07/11 06:09:14;;;;;;;0.00;0.00;;;;;;;24.98;62.21;101399.50;5011294;28;20045;-67
2023/07/11 06:11:40;;;;;;;0.00;0.00;;;;;;;25.01;61.80;101393.41;5015344;28;20087;-67
2023/07/11 06:14:07;;;;;;;0.00;0.00;;;;;;;25.25;61.29;101391.25;5016633;28;20033;-67
2023/07/11 06:16:33;;;;;;;0.00;0.00;;;;;;;25.13;61.87;101388.19;5005280;28;20038;-66
2023/07/11 06:18:59;;;;;;;0.00;0.00;;;;;;;25.40;61.27;101381.00;5006095;28;20092;-66
2023/07/11 06:21:24;;;;;;;0.00;0.00;;;;;;;25.26;61.87;101384.59;5006109;28;20046;-67
2023/07/11 06:23:50;;;;;;;0.00;0.00;;;;;;;25.36;60.86;101379.97;5005968;28;20068;-67
2023/07/11 06:26:15;;;;;;;0.00;0.00;;;;;;;25.57;59.89;101378.41;5006005;28;20045;-66
2023/07/11 06:28:42;;;;;;;0.00;0.00;;;;;;;25.26;60.81;101378.28;5005609;28;20046;-66
2023/07/11 06:31:10;;;;;;;0.00;0.00;;;;;;;25.35;60.06;101370.94;5005007;28;20131;-66
2023/07/11 06:33:35;;;;;;;0.00;0.00;;;;;;;25.73;58.60;101374.97;5004738;28;20109;-66
2023/07/11 06:36:03;;;;;;;0.00;0.00;;;;;;;25.69;58.56;101367.66;5002383;28;20088;-66
2023/07/11 06:38:28;;;;;;;0.00;0.00;;;;;;;25.67;58.40;101367.94;5002609;28;20026;-66
2023/07/11 06:40:55;;;;;;;0.00;0.00;;;;;;;25.87;58.24;101367.44;5006336;28;20056;-66
2023/07/11 06:43:23;;;;;;;0.00;0.00;;;;;;;25.72;58.29;101365.09;5013016;28;20042;-66
2023/07/11 06:45:51;;;;;;;0.00;0.00;;;;;;;25.70;58.98;101374.78;5005553;28;20353;-66
2023/07/11 06:48:18;;;;;;;0.00;0.00;;;;;;;25.90;58.58;101366.03;5005882;28;20034;-66
2023/07/11 06:50:53;;;;;;;0.00;0.00;;;;;;;25.93;58.42;101365.38;5006446;28;20084;-66
2023/07/11 06:53:19;;;;;;;0.00;0.00;;;;;;;25.91;58.37;101364.88;5009741;28;20425;-67
2023/07/11 06:55:49;;;;;;;0.00;0.00;;;;;;;25.69;58.83;101362.94;5019711;28;20104;-66
2023/07/11 06:58:16;;;;;;;0.00;0.00;;;;;;;25.71;57.95;101357.94;4989367;28;20509;-66
2023/07/11 07:00:42;;;;;;;0.00;0.00;;;;;;;25.95;57.48;101360.38;4989582;28;20050;-66
2023/07/11 07:03:12;;;;;;;0.00;0.00;;;;;;;26.05;57.65;101357.34;4990198;28;20034;-66
2023/07/11 07:05:37;;;;;;;0.00;0.00;;;;;;;26.20;56.62;101372.69;4990395;28;20045;-67
2023/07/11 07:08:03;;;;;;;0.00;0.00;;;;;;;26.45;56.46;101361.78;4992113;28;20096;-66
2023/07/11 07:10:29;;;;;;;0.00;0.00;;;;;;;26.57;56.35;101359.25;4993813;28;20173;-66
2023/07/11 07:12:54;;;;;;;0.00;0.00;;;;;;;26.57;56.01;101353.75;5000446;28;20042;-66
2023/07/11 07:15:19;;;;;;;0.00;0.00;;;;;;;26.52;56.36;101358.56;4996067;28;20074;-66
2023/07/11 07:17:45;;;;;;;0.00;0.00;;;;;;;26.37;55.96;101354.31;4999121;28;20049;-67
2023/07/11 07:20:12;;;;;;;0.00;0.00;;;;;;;26.78;55.32;101348.47;4993437;28;20046;-66
2023/07/11 07:22:37;;;;;;;0.00;0.00;;;;;;;26.89;54.59;101347.81;5004319;28;20038;-66
2023/07/11 07:25:03;;;;;;;0.00;0.00;;;;;;;26.51;55.15;101348.69;4997694;28;20039;-67
2023/07/11 07:27:29;;;;;;;0.00;0.00;;;;;;;26.59;55.83;101350.66;4998844;28;20462;-67
2023/07/11 07:29:55;;;;;;;0.00;0.00;;;;;;;26.66;55.24;101348.22;4998922;28;20029;-67
2023/07/11 07:32:20;;;;;;;0.00;0.00;;;;;;;27.05;53.24;101353.69;4993682;28;20030;-67
2023/07/11 07:34:47;;;;;;;0.00;0.00;;;;;;;27.15;53.61;101347.03;4991888;28;20101;-66
2023/07/11 07:37:13;;;;;;;0.00;0.00;;;;;;;27.35;52.44;101350.03;4996697;28;20089;-67
2023/07/11 07:39:40;;;;;;;0.00;0.00;;;;;;;27.33;52.87;101340.44;4991557;28;20446;-65
2023/07/11 07:42:06;;;;;;;0.00;0.00;;;;;;;27.38;52.99;101345.81;4997392;28;20505;-65
2023/07/11 07:44:31;;;;;;;0.00;0.00;;;;;;;27.39;53.09;101333.59;5000534;28;20055;-65
2023/07/11 07:46:57;;;;;;;0.00;0.00;;;;;;;27.46;52.84;101339.47;4995673;28;20042;-65
2023/07/11 07:49:22;;;;;;;0.00;0.00;;;;;;;27.48;52.32;101329.69;4993647;28;20031;-66
2023/07/11 07:51:48;;;;;;;0.00;0.00;;;;;;;27.63;52.52;101326.44;4994482;28;20490;-65
2023/07/11 07:54:13;;;;;;;0.00;0.00;;;;;;;27.47;52.50;101324.50;5004442;28;20034;-65
2023/07/11 07:56:38;;;;;;;0.00;0.00;;;;;;;27.69;51.55;101325.13;4996179;28;20030;-66
2023/07/11 07:59:04;;;;;;;0.00;0.00;;;;;;;27.65;51.04;101326.13;4993717;28;20059;-66
2023/07/11 08:01:30;;;;;;;0.00;0.00;;;;;;;27.84;50.80;101332.09;4999020;28;20035;-66
2023/07/11 08:03:56;;;;;;;0.00;0.00;;;;;;;28.15;49.90;101324.38;4996293;28;20045;-66
2023/07/11 08:06:21;;;;;;;0.00;0.00;;;;;;;28.33;48.67;101327.88;4996566;28;20486;-65
2023/07/11 08:08:48;;;;;;;0.00;0.00;;;;;;;28.60;48.12;101319.13;4994880;28;20042;-66
2023/07/11 08:11:15;;;;;;;0.00;0.00;;;;;;;28.72;47.50;101316.47;4997083;28;20033;-66
2023/07/11 08:13:42;;;;;;;0.00;0.00;;;;;;;28.69;47.86;101310.81;5000445;28;20073;-66
2023/07/11 08:16:07;;;;;;;0.00;0.00;;;;;;;29.04;46.51;101307.47;5000804;28;20065;-66
2023/07/11 08:18:33;;;;;;;0.00;0.00;;;;;;;28.62;47.49;101306.59;4999630;28;20486;-65
2023/07/11 08:20:59;;;;;;;0.00;0.00;;;;;;;28.59;48.04;101310.06;5007411;28;20037;-65
2023/07/11 08:23:24;;;;;;;0.00;0.00;;;;;;;29.17;46.80;101306.41;5001291;28;20014;-65
2023/07/11 08:25:52;;;;;;;0.00;0.00;;;;;;;29.19;46.62;101301.31;5000075;28;20112;-66
2023/07/11 08:28:17;;;;;;;0.00;0.00;;;;;;;29.38;46.24;101306.38;4995692;28;20398;-66
2023/07/11 08:30:43;;;;;;;0.00;0.00;;;;;;;29.62;45.51;101309.22;5013834;28;20046;-66
2023/07/11 08:33:08;;;;;;;0.00;0.00;;;;;;;29.43;44.85;101306.97;5001087;28;20038;-66
2023/07/11 08:35:33;;;;;;;0.00;0.00;;;;;;;30.07;44.15;101298.19;5000626;28;20022;-67
2023/07/11 08:38:01;;;;;;;0.00;0.00;;;;;;;30.06;44.17;101296.53;4999650;28;20034;-66
2023/07/11 08:40:33;;;;;;;0.00;0.00;;;;;;;29.95;44.38;101295.38;4996108;28;20041;-67
2023/07/11 08:43:04;;;;;;;0.00;0.00;;;;;;;30.13;43.82;101289.25;4989970;28;20069;-65
2023/07/11 08:45:38;;;;;;;0.00;0.00;;;;;;;30.22;42.71;101278.88;4989559;28;20328;-65
2023/07/11 08:48:10;;;;;;;0.00;0.00;;;;;;;30.34;42.32;101291.97;4990713;28;20089;-66
2023/07/11 08:50:41;;;;;;;0.00;0.00;;;;;;;30.51;40.71;101277.84;4990160;28;20117;-66
2023/07/11 08:53:13;;;;;;;0.00;0.00;;;;;;;30.92;39.86;101279.53;4990324;28;20065;-65
2023/07/11 08:55:44;;;;;;;0.00;0.00;;;;;;;30.75;39.45;101266.72;4988085;28;20097;-66
2023/07/11 08:58:17;;;;;;;0.00;0.00;;;;;;;31.21;39.57;101272.84;4990027;28;20026;-66
2023/07/11 09:00:47;;;;;;;0.00;0.00;;;;;;;30.70;38.83;101266.94;4990083;28;20042;-67
2023/07/11 09:03:26;;;;;;;0.00;0.00;;;;;;;31.10;37.42;101264.22;4990228;28;20030;-67
2023/07/11 09:06:02;;;;;;;0.00;0.00;;;;;;;30.54;38.88;101262.47;4989774;28;20037;-66
2023/07/11 09:08:29;;;;;;;0.00;0.00;;;;;;;30.87;36.59;101255.63;4990850;28;20396;-66
2023/07/11 09:11:00;;;;;;;0.00;0.00;;;;;;;30.75;37.13;101258.41;4996194;28;20042;-66
2023/07/11 09:13:50;;;;;;;0.00;0.00;;;;;;;31.28;36.47;101256.38;4991330;28;20061;-67
2023/07/11 09:16:36;;;;;;;0.00;0.00;;;;;;;30.99;37.14;101255.59;4985432;28;20066;-66
2023/07/11 09:19:24;;;;;;;0.00;0.00;;;;;;;30.66;35.86;101248.59;4988407;28;20038;-65
2023/07/11 09:22:05;;;;;;;0.00;0.00;;;;;;;30.44;37.75;101243.53;4997803;28;20061;-66
2023/07/11 09:24:40;;;;;;;0.00;0.00;;;;;;;30.46;37.28;101249.56;5005204;28;20390;-67
2023/07/11 09:27:34;;;;;;;0.00;0.00;;;;;;;31.66;35.56;101240.81;4990285;28;20049;-66
2023/07/11 09:30:02;;;;;;;0.00;0.00;;;;;;;31.55;35.86;101233.34;4990195;28;20034;-64
2023/07/11 09:32:32;;;;;;;0.00;0.00;;;;;;;31.06;36.12;101247.47;4990349;28;20481;-66
2023/07/11 09:35:00;;;;;;;0.00;0.00;;;;;;;31.22;36.84;101230.03;4990120;28;20046;-66
2023/07/11 09:37:37;;;;;;;0.00;0.00;;;;;;;31.19;36.35;101237.13;4997708;28;20036;-67
2023/07/11 09:40:18;;;;;;;0.00;0.00;;;;;;;31.26;36.07;101237.31;4995070;28;20036;-66
2023/07/11 09:42:51;;;;;;;0.00;0.00;;;;;;;31.38;36.36;101237.28;4993934;28;20485;-66
2023/07/11 09:45:18;;;;;;;0.00;0.00;;;;;;;31.03;37.06;101236.25;4970121;28;20053;-66
2023/07/11 09:47:51;;;;;;;0.00;0.00;;;;;;;31.23;36.77;101234.44;4986274;28;20030;-66
2023/07/11 09:50:49;;;;;;;0.00;0.00;;;;;;;30.61;37.60;101233.00;4990382;28;20057;-67
2023/07/11 09:53:20;;;;;;;0.00;0.00;;;;;;;30.63;36.59;101229.84;4987321;28;20458;-67
2023/07/11 09:55:45;;;;;;;0.00;0.00;;;;;;;30.76;37.19;101228.69;4986692;28;20030;-66
2023/07/11 09:58:15;;;;;;;0.00;0.00;;;;;;;30.76;36.84;101231.47;4987052;28;20073;-65
2023/07/11 10:00:45;;;;;;;;;;;;;;;31.14;36.68;101237.34;4987620;28;20093;-66
2023/07/11 10:03:15;;;;;;;0.00;0.00;;;;;;;31.10;36.20;101222.56;4986703;28;19914;-66
2023/07/11 10:05:44;;;;;;;0.00;0.00;;;;;;;30.79;34.37;101223.22;4987633;28;20477;-66
2023/07/11 10:08:23;;;;;;;0.00;0.00;;;;;;;30.99;34.04;101230.59;4987057;28;20517;-64
2023/07/11 10:10:51;;;;;;;0.00;0.00;;;;;;;31.18;33.37;101213.28;4987273;28;20039;-64
2023/07/11 10:13:17;;;;;;;0.00;0.00;;;;;;;31.10;35.39;101214.22;4985117;28;20064;-65
2023/07/11 10:15:46;;;;;;;0.00;0.00;;;;;;;30.82;34.48;101222.50;4987402;28;20112;-65
2023/07/11 10:18:17;;;;;;;0.00;0.00;;;;;;;31.09;33.81;101218.19;4986400;28;20074;-67
2023/07/11 10:20:45;;;;;;;0.00;0.00;;;;;;;31.33;33.23;101214.47;5005980;28;20099;-62
2023/07/11 10:23:13;;;;;;;0.00;0.00;;;;;;;31.14;33.74;101213.19;4993824;28;20049;-64
2023/07/11 10:25:42;;;;;;;0.00;0.00;;;;;;;31.57;33.45;101211.56;4986700;28;20042;-67
2023/07/11 10:28:32;;;;;;;0.00;0.00;;;;;;;31.69;33.77;101212.28;4986931;28;20042;-64
2023/07/11 10:31:07;;;;;;;0.00;0.00;;;;;;;32.20;32.81;101199.28;4979686;28;20053;-65
2023/07/11 10:33:41;;;;;;;0.00;0.00;;;;;;;32.46;33.11;101199.53;5009755;28;20037;-64
2023/07/11 10:36:30;;;;;;;0.00;0.00;;;;;;;31.80;32.49;101202.25;5011539;28;20037;-63
2023/07/11 10:39:00;;;;;;;0.00;0.00;;;;;;;31.24;33.07;101211.03;4979011;28;20026;-64
2023/07/11 10:41:59;;;;;;;0.00;0.00;;;;;;;31.97;32.48;101206.69;4996798;28;20105;-64
2023/07/11 10:44:40;;;;;;;0.00;0.00;;;;;;;31.75;33.78;101207.28;4995567;28;20421;-65
2023/07/11 10:47:09;;;;;;;0.00;0.00;;;;;;;31.88;33.21;101198.47;4992635;28;20037;-63
2023/07/11 10:49:43;;;;;;;0.00;0.00;;;;;;;32.14;33.12;101197.94;4992630;28;20058;-63
2023/07/11 10:52:24;;;;;;;0.00;0.00;;;;;;;32.50;32.56;101192.06;4995139;28;20034;-64
2023/07/11 10:55:16;;;;;;;0.00;0.00;;;;;;;32.26;32.90;101186.69;4993500;28;20038;-64
2023/07/11 10:57:51;;;;;;;0.00;0.00;;;;;;;32.43;31.72;101189.06;5003165;28;20092;-65
2023/07/11 11:00:19;;;;;;;0.00;0.00;;;;;;;32.47;31.89;101203.91;5001542;28;20037;-65
2023/07/11 11:03:03;;;;;;;0.00;0.00;;;;;;;32.62;31.09;101188.31;5003828;28;20025;-66
2023/07/11 11:06:18;;;;;;;0.00;0.00;;;;;;;33.07;30.25;101187.69;4997164;28;20046;-63
2023/07/11 11:08:46;;;;;;;0.00;0.00;;;;;;;33.27;31.40;101173.38;4961529;28;20703;-67
2023/07/11 11:11:25;;;;;;;0.00;0.00;;;;;;;33.97;30.34;101182.16;4962446;28;20117;-66
2023/07/11 11:14:15;;;;;;;0.00;0.00;;;;;;;33.88;29.76;101156.53;4961433;28;20281;-66
2023/07/11 11:17:04;;;;;;;0.00;0.00;;;;;;;34.01;29.18;101171.06;4955553;28;20043;-66
2023/07/11 11:20:04;;;;;;;0.00;0.00;;;;;;;32.82;31.14;101173.25;4958309;28;20054;-67
2023/07/11 11:23:18;;;;;;;0.00;0.00;;;;;;;33.39;30.93;101186.31;4960203;28;20361;-66
2023/07/11 11:26:00;;;;;;;0.00;0.00;;;;;;;32.89;31.32;101173.38;4952440;28;20589;-67
2023/07/11 11:28:39;;;;;;;0.00;0.00;;;;;;;32.73;32.06;101175.44;4954545;28;20032;-65
2023/07/11 11:31:32;;;;;;;0.00;0.00;;;;;;;33.30;30.82;101163.44;4958386;28;20046;-67
2023/07/11 11:34:12;;;;;;;0.00;0.00;;;;;;;32.94;31.47;101166.72;4956315;28;20077;-66
2023/07/11 11:36:46;;;;;;;0.00;0.00;;;;;;;33.81;30.19;101153.59;4958523;28;20042;-66
2023/07/11 11:39:35;;;;;;;0.00;0.00;;;;;;;33.17;31.01;101178.72;4957305;28;20550;-65
2023/07/11 11:42:06;;;;;;;0.00;0.00;;;;;;;33.30;30.84;101169.00;4958370;28;20085;-67
2023/07/11 11:44:42;;;;;;;0.00;0.00;;;;;;;33.90;29.70;101162.53;4983161;28;20037;-67
2023/07/11 11:47:09;;;;;;;0.00;0.00;;;;;;;34.57;29.88;101162.72;4998106;28;20044;-67
2023/07/11 11:49:37;;;;;;;0.00;0.00;;;;;;;34.40;30.06;101162.09;4993048;28;20125;-68
2023/07/11 11:52:05;;;;;;;0.00;0.00;;;;;;;34.97;28.28;101169.22;4992188;28;20039;-68
2023/07/11 11:54:41;;;;;;;0.00;0.00;;;;;;;35.27;28.39;101161.59;4992126;28;20073;-66
2023/07/11 11:57:14;;;;;;;0.00;0.00;;;;;;;34.15;29.39;101155.34;4991965;28;20454;-68
2023/07/11 11:59:39;;;;;;;0.00;0.00;;;;;;;34.74;28.39;101156.56;4992492;28;20082;-64
2023/07/11 12:02:16;;;;;;;0.00;0.00;;;;;;;34.93;28.87;101153.59;4991651;28;20057;-67
2023/07/11 12:04:56;;;;;;;0.00;0.00;;;;;;;35.93;28.42;101166.19;4991216;28;20133;-68
2023/07/11 12:07:31;;;;;;;0.00;0.00;;;;;;;35.40;28.00;101158.50;4990257;28;20418;-68
2023/07/11 12:09:57;;;;;;;0.00;0.00;;;;;;;34.52;29.55;101143.53;4991862;28;20053;-68
2023/07/11 12:12:24;;;;;;;0.00;0.00;;;;;;;35.10;29.28;101147.44;4991651;28;20144;-67
2023/07/11 12:14:50;;;;;;;0.00;0.00;;;;;;;34.64;30.40;101155.25;4991569;28;20069;-68
2023/07/11 12:17:34;;;;;;;0.00;0.00;;;;;;;34.72;30.37;101151.34;4991399;28;20142;-69
2023/07/11 12:19:59;;;;;;;0.00;0.00;;;;;;;35.03;30.00;101158.50;4990479;28;20065;-67
2023/07/11 12:22:26;;;;;;;0.00;0.00;;;;;;;35.03;30.08;101150.94;4985927;28;20124;-68
2023/07/11 12:25:24;;;;;;;0.00;0.00;;;;;;;34.59;29.66;101152.81;4988443;28;20379;-68
2023/07/11 12:27:53;;;;;;;0.00;0.00;;;;;;;34.23;31.28;101142.31;4931490;29;20086;-69
2023/07/11 12:30:36;;;;;;;0.00;0.00;;;;;;;34.43;31.46;101141.00;4924454;28;20041;-68
2023/07/11 12:33:15;;;;;;;0.00;0.00;;;;;;;33.41;32.84;101145.75;4931949;29;20503;-66
2023/07/11 12:35:42;;;;;;;0.00;0.00;;;;;;;33.44;32.90;101149.75;4947506;29;20030;-67
2023/07/11 12:38:22;;;;;;;0.00;0.00;;;;;;;33.65;32.14;101145.38;4948167;29;20050;-68
2023/07/11 12:41:23;;;;;;;0.00;0.00;;;;;;;33.43;32.62;101148.97;4948840;28;20074;-65
2023/07/11 12:43:48;;;;;;;0.00;0.00;;;;;;;33.02;33.45;101144.25;4949950;28;20043;-68
2023/07/11 12:46:18;;;;;;;0.00;0.00;;;;;;;33.69;32.45;101139.84;4953245;28;20048;-68
2023/07/11 12:48:47;;;;;;;0.00;0.00;;;;;;;33.15;33.73;101144.84;4954432;28;20159;-64
2023/07/11 12:51:32;;;;;;;0.00;0.00;;;;;;;33.26;33.38;101141.09;4951675;28;20388;-66
2023/07/11 12:54:10;;;;;;;0.00;0.00;;;;;;;32.87;34.34;101136.75;4955347;28;20054;-68
2023/07/11 12:56:44;;;;;;;0.00;0.00;;;;;;;33.92;33.58;101135.06;4955410;28;20030;-66
2023/07/11 12:59:39;;;;;;;0.00;0.00;;;;;;;33.67;33.08;101136.66;4957041;28;20043;-66